SPRKM EPKT-EPKK
Flight info
| Callsign | SPRKM |
|---|---|
| Flight time | N/A |
| Altitude | 2000 |
| Route | EPKT/26 AEPKT STAY01/0030 DCT EPKTX DCT EPKTG DCT EPKKH DCT EPKKB DCT EPKKI DCT EPKKZ DCT AEPKK STAY02/0030 |
| Aircraft | DA40/L-V/N |
Departure
| Time | 2026-05-06 19:01 |
|---|---|
| Airport | Katowice Wojciech Korfanty International Airport (EPKT) |
Arrival
| Time | N/A |
|---|---|
| Airport | Kraków John Paul II International Airport (EPKK) |
| Time | Latitude | Longitude | Altitude | Speed | Heading |
|---|---|---|---|---|---|
| 2026-05-06 19:01 | 50.52091 | 19.07536 | 1976 ft | 142 kts | 257° |
| 2026-05-06 19:01 | 50.51444 | 19.06653 | 1977 ft | 131 kts | 178° |
| 2026-05-06 19:01 | 50.50799 | 19.07540 | 1984 ft | 136 kts | 105° |
| 2026-05-06 19:01 | 50.51280 | 19.08815 | 1919 ft | 149 kts | 31° |
| 2026-05-06 19:02 | 50.51618 | 19.10155 | 1825 ft | 141 kts | 108° |
| 2026-05-06 19:02 | 50.51108 | 19.11475 | 1731 ft | 144 kts | 133° |
| 2026-05-06 19:02 | 50.50321 | 19.12438 | 1581 ft | 138 kts | 151° |
| 2026-05-06 19:02 | 50.49492 | 19.13069 | 1338 ft | 127 kts | 158° |
| 2026-05-06 19:03 | 50.48651 | 19.13176 | 1291 ft | 119 kts | 182° |
| 2026-05-06 19:03 | 50.47890 | 19.13029 | 1216 ft | 102 kts | 193° |
| 2026-05-06 19:03 | 50.47587 | 19.12210 | 1135 ft | 94 kts | 266° |
| 2026-05-06 19:03 | 50.47587 | 19.11245 | 1043 ft | 86 kts | 271° |
| 2026-05-06 19:04 | 50.47591 | 19.10281 | 1024 ft | 86 kts | 269° |
| 2026-05-06 19:04 | 50.47592 | 19.09399 | 994 ft | 81 kts | 270° |
| 2026-05-06 19:04 | 50.47598 | 19.08335 | 1059 ft | 106 kts | 270° |
| 2026-05-06 19:04 | 50.47598 | 19.07127 | 1219 ft | 113 kts | 269° |
| 2026-05-06 19:05 | 50.47608 | 19.05834 | 1373 ft | 121 kts | 275° |
| 2026-05-06 19:05 | 50.48167 | 19.04977 | 1510 ft | 127 kts | 6° |
| 2026-05-06 19:05 | 50.48588 | 19.05984 | 1691 ft | 118 kts | 85° |
| 2026-05-06 19:05 | 50.48724 | 19.07328 | 1709 ft | 128 kts | 85° |
| 2026-05-06 19:06 | 50.48829 | 19.08730 | 1778 ft | 130 kts | 88° |
| 2026-05-06 19:06 | 50.48914 | 19.10179 | 1772 ft | 136 kts | 88° |
| 2026-05-06 19:06 | 50.48992 | 19.11670 | 1820 ft | 136 kts | 90° |
| 2026-05-06 19:06 | 50.49047 | 19.13120 | 1905 ft | 125 kts | 102° |
| 2026-05-06 19:07 | 50.48524 | 19.14031 | 1808 ft | 120 kts | 169° |
| 2026-05-06 19:07 | 50.47972 | 19.13849 | 1617 ft | 132 kts | 207° |
| 2026-05-06 19:07 | 50.47589 | 19.12232 | 1324 ft | 120 kts | 268° |
| 2026-05-06 19:07 | 50.47592 | 19.10994 | 1163 ft | 109 kts | 269° |
| 2026-05-06 19:08 | 50.47590 | 19.09875 | 1055 ft | 97 kts | 269° |
| 2026-05-06 19:08 | 50.47592 | 19.08911 | 1017 ft | 82 kts | 269° |
| 2026-05-06 19:08 | 50.47594 | 19.07941 | 1136 ft | 96 kts | 269° |
| 2026-05-06 19:08 | 50.47591 | 19.06834 | 1288 ft | 106 kts | 266° |
| 2026-05-06 19:09 | 50.47572 | 19.05602 | 1449 ft | 120 kts | 265° |
| 2026-05-06 19:09 | 50.47561 | 19.04265 | 1623 ft | 122 kts | 270° |
| 2026-05-06 19:09 | 50.48073 | 19.03249 | 1746 ft | 129 kts | 343° |
| 2026-05-06 19:09 | 50.48947 | 19.03242 | 1876 ft | 128 kts | 34° |
| 2026-05-06 19:10 | 50.49378 | 19.04416 | 1953 ft | 130 kts | 76° |
| 2026-05-06 19:10 | 50.49653 | 19.05810 | 1976 ft | 136 kts | 79° |
| 2026-05-06 19:10 | 50.49867 | 19.07234 | 1947 ft | 130 kts | 81° |
| 2026-05-06 19:10 | 50.50064 | 19.08601 | 1902 ft | 127 kts | 82° |
| 2026-05-06 19:11 | 50.50229 | 19.09979 | 1822 ft | 130 kts | 84° |
| 2026-05-06 19:11 | 50.50392 | 19.11355 | 1812 ft | 125 kts | 85° |
| 2026-05-06 19:11 | 50.50288 | 19.12588 | 1831 ft | 110 kts | 123° |
| 2026-05-06 19:11 | 50.49759 | 19.13303 | 1837 ft | 95 kts | 161° |
| 2026-05-06 19:12 | 50.49097 | 19.13479 | 1656 ft | 99 kts | 181° |
| 2026-05-06 19:12 | 50.48442 | 19.13190 | 1429 ft | 102 kts | 210° |
| 2026-05-06 19:12 | 50.47958 | 19.12434 | 1352 ft | 97 kts | 240° |
| 2026-05-06 19:12 | 50.47690 | 19.11465 | 1207 ft | 95 kts | 253° |
| 2026-05-06 19:13 | 50.47609 | 19.10477 | 1084 ft | 88 kts | 266° |
| 2026-05-06 19:13 | 50.47597 | 19.09568 | 996 ft | 80 kts | 269° |
| 2026-05-06 19:13 | 50.47597 | 19.08978 | 995 ft | 89 kts | 270° |
| 2026-05-06 19:13 | 50.47605 | 19.07923 | 1136 ft | 102 kts | 269° |
| 2026-05-06 19:14 | 50.47608 | 19.07540 | 1171 ft | 107 kts | 269° |